createdAt,value
2019-02-04T00:00:12.610Z,1015.25
2019-02-04T00:01:11.187Z,1015.27
2019-02-04T00:02:10.181Z,1015.29
2019-02-04T00:03:08.743Z,1015.24
2019-02-04T00:04:07.301Z,1015.23
2019-02-04T00:05:05.900Z,1015.23
2019-02-04T00:06:04.442Z,1015.23
2019-02-04T00:07:02.990Z,1015.23
2019-02-04T00:08:01.535Z,1015.24
2019-02-04T00:09:00.272Z,1015.25
2019-02-04T00:09:58.840Z,1015.21
2019-02-04T00:10:59.293Z,1015.28
2019-02-04T00:11:56.070Z,1015.2
2019-02-04T00:12:54.708Z,1015.25
2019-02-04T00:13:53.266Z,1015.25
2019-02-04T00:14:51.925Z,1015.24
2019-02-04T00:15:50.486Z,1015.26
2019-02-04T00:16:49.056Z,1015.27
2019-02-04T00:17:47.696Z,1015.3
2019-02-04T00:18:46.481Z,1015.31
2019-02-04T00:19:45.025Z,1015.27
2019-02-04T00:20:43.568Z,1015.29
2019-02-04T00:21:42.367Z,1015.29
2019-02-04T00:22:40.911Z,1015.32
2019-02-04T00:23:39.515Z,1015.24
2019-02-04T00:24:38.080Z,1015.27
2019-02-04T00:25:36.668Z,1015.25
2019-02-04T00:26:35.195Z,1015.27
2019-02-04T00:27:33.758Z,1015.31
2019-02-04T00:28:32.329Z,1015.34
2019-02-04T00:29:30.901Z,1015.37
2019-02-04T00:30:29.436Z,1015.35
2019-02-04T00:31:27.998Z,1015.31
2019-02-04T00:32:26.648Z,1015.33
2019-02-04T00:33:25.184Z,1015.31
2019-02-04T00:34:23.714Z,1015.3
2019-02-04T00:35:22.290Z,1015.34
2019-02-04T00:36:20.871Z,1015.29
2019-02-04T00:37:19.398Z,1015.28
2019-02-04T00:38:18.188Z,1015.26
2019-02-04T00:39:16.749Z,1015.27
2019-02-04T00:40:15.282Z,1015.25
2019-02-04T00:41:13.936Z,1015.25
2019-02-04T00:42:12.503Z,1015.25
2019-02-04T00:43:11.034Z,1015.27
2019-02-04T00:44:09.576Z,1015.25
2019-02-04T00:45:08.163Z,1015.22
2019-02-04T00:46:06.734Z,1015.27
2019-02-04T00:47:05.295Z,1015.24
2019-02-04T00:48:04.006Z,1015.27
2019-02-04T00:49:02.689Z,1015.25
2019-02-04T00:50:01.255Z,1015.24
2019-02-04T00:50:59.970Z,1015.28
2019-02-04T00:51:58.544Z,1015.33
2019-02-04T00:52:57.105Z,1015.29
2019-02-04T00:53:55.672Z,1015.31
2019-02-04T00:54:54.235Z,1015.26
2019-02-04T00:55:52.781Z,1015.29
2019-02-04T00:56:51.309Z,1015.31
2019-02-04T00:57:49.929Z,1015.32
2019-02-04T00:58:48.544Z,1015.35
2019-02-04T00:59:47.108Z,1015.36
2019-02-04T01:00:46.149Z,1015.37
2019-02-04T01:01:44.737Z,1015.33
2019-02-04T01:02:43.274Z,1015.33
2019-02-04T01:03:41.851Z,1015.38
2019-02-04T01:04:40.601Z,1015.34
2019-02-04T01:05:39.269Z,1015.4
2019-02-04T01:06:37.912Z,1015.42
2019-02-04T01:07:36.529Z,1015.36
2019-02-04T01:08:35.082Z,1015.43
2019-02-04T01:09:33.723Z,1015.45
2019-02-04T01:10:32.310Z,1015.47
2019-02-04T01:11:30.954Z,1015.49
2019-02-04T01:12:29.456Z,1015.47
2019-02-04T01:13:28.032Z,1015.41
2019-02-04T01:14:26.608Z,1015.49
2019-02-04T01:15:25.155Z,1015.5
2019-02-04T01:16:23.960Z,1015.41
2019-02-04T01:17:22.645Z,1015.42
2019-02-04T01:18:21.246Z,1015.46
2019-02-04T01:19:19.965Z,1015.48
2019-02-04T01:20:18.690Z,1015.51
2019-02-04T01:21:17.230Z,1015.48
2019-02-04T01:22:16.099Z,1015.49
2019-02-04T01:23:14.736Z,1015.53
2019-02-04T01:24:13.286Z,1015.53
2019-02-04T01:25:11.876Z,1015.48
2019-02-04T01:26:10.464Z,1015.51
2019-02-04T01:27:09.010Z,1015.51
2019-02-04T01:28:07.585Z,1015.54
2019-02-04T01:29:06.166Z,1015.57
2019-02-04T01:30:04.695Z,1015.57
2019-02-04T01:31:03.272Z,1015.54
2019-02-04T01:32:01.795Z,1015.58
2019-02-04T01:33:00.344Z,1015.54
2019-02-04T01:33:58.892Z,1015.56
2019-02-04T01:34:57.446Z,1015.59
2019-02-04T01:35:56.316Z,1015.55
2019-02-04T01:36:54.865Z,1015.52
2019-02-04T01:37:53.415Z,1015.57
2019-02-04T01:38:52.236Z,1015.56
2019-02-04T01:39:50.789Z,1015.53
2019-02-04T01:40:49.343Z,1015.54
2019-02-04T01:41:47.881Z,1015.51
2019-02-04T01:42:46.505Z,1015.55
2019-02-04T01:43:45.072Z,1015.54
2019-02-04T01:44:43.643Z,1015.53
2019-02-04T01:45:42.571Z,1015.49
2019-02-04T01:46:41.185Z,1015.55
2019-02-04T01:47:39.926Z,1015.52
2019-02-04T01:48:38.511Z,1015.56
2019-02-04T01:49:37.066Z,1015.56
2019-02-04T01:50:35.606Z,1015.58
2019-02-04T01:51:34.148Z,1015.58
2019-02-04T01:52:32.701Z,1015.62
2019-02-04T01:53:31.249Z,1015.6
2019-02-04T01:54:29.757Z,1015.66
2019-02-04T01:55:28.395Z,1015.64
2019-02-04T01:56:26.936Z,1015.67
2019-02-04T01:57:25.508Z,1015.71
2019-02-04T01:58:24.181Z,1015.75
2019-02-04T01:59:22.875Z,1015.77
2019-02-04T02:00:21.414Z,1015.77
2019-02-04T02:01:20.125Z,1015.79
2019-02-04T02:02:18.670Z,1015.77
2019-02-04T02:03:17.226Z,1015.82
2019-02-04T02:04:15.790Z,1015.86
2019-02-04T02:05:14.364Z,1015.83
2019-02-04T02:06:12.918Z,1015.8
2019-02-04T02:07:11.475Z,1015.81
2019-02-04T02:08:10.043Z,1015.81
2019-02-04T02:09:08.747Z,1015.77
2019-02-04T02:10:07.313Z,1015.73
2019-02-04T02:11:05.896Z,1015.8
2019-02-04T02:12:04.658Z,1015.78
2019-02-04T02:13:03.208Z,1015.81
2019-02-04T02:14:01.880Z,1015.77
2019-02-04T02:15:00.423Z,1015.79
2019-02-04T02:15:59.003Z,1015.8
2019-02-04T02:16:57.560Z,1015.86
2019-02-04T02:17:56.403Z,1015.88
2019-02-04T02:18:54.978Z,1015.86
2019-02-04T02:19:53.534Z,1015.88
2019-02-04T02:20:52.451Z,1015.87
2019-02-04T02:21:51.032Z,1015.89
2019-02-04T02:22:49.611Z,1015.85
2019-02-04T02:23:48.190Z,1015.85
2019-02-04T02:24:46.930Z,1015.8
2019-02-04T02:25:45.491Z,1015.82
2019-02-04T02:26:44.169Z,1015.79
2019-02-04T02:27:42.751Z,1015.82
2019-02-04T02:28:41.352Z,1015.79
2019-02-04T02:29:39.889Z,1015.8
2019-02-04T02:30:38.830Z,1015.82
2019-02-04T02:31:37.404Z,1015.86
2019-02-04T02:32:36.063Z,1015.82
2019-02-04T02:33:34.629Z,1015.85
2019-02-04T02:34:33.174Z,1015.85
2019-02-04T02:35:31.809Z,1015.83
2019-02-04T02:36:30.633Z,1015.85
2019-02-04T02:37:29.197Z,1015.83
2019-02-04T02:38:27.746Z,1015.82
2019-02-04T02:39:26.312Z,1015.83
2019-02-04T02:40:24.883Z,1015.89
2019-02-04T02:41:23.430Z,1015.84
2019-02-04T02:42:22.004Z,1015.86
2019-02-04T02:43:20.527Z,1015.85
2019-02-04T02:44:19.110Z,1015.85
2019-02-04T02:45:17.664Z,1015.83
2019-02-04T02:46:16.456Z,1015.86
2019-02-04T02:47:15.018Z,1015.9
2019-02-04T02:48:13.547Z,1015.9
2019-02-04T02:49:12.191Z,1015.89
2019-02-04T02:50:10.756Z,1015.85
2019-02-04T02:51:09.307Z,1015.87
2019-02-04T02:52:08.027Z,1015.88
2019-02-04T02:53:06.578Z,1015.92
2019-02-04T02:54:05.133Z,1015.95
2019-02-04T02:55:03.656Z,1015.91
2019-02-04T02:56:02.221Z,1015.92
2019-02-04T02:57:00.761Z,1015.92
2019-02-04T02:57:59.294Z,1015.89
2019-02-04T02:58:57.918Z,1015.86
2019-02-04T02:59:56.593Z,1015.95
2019-02-04T03:00:55.134Z,1015.93
2019-02-04T03:01:53.686Z,1015.97
2019-02-04T03:02:52.522Z,1015.99
2019-02-04T03:03:51.070Z,1015.96
2019-02-04T03:04:49.698Z,1015.95
2019-02-04T03:05:48.274Z,1015.99
2019-02-04T03:06:46.807Z,1016
2019-02-04T03:07:45.355Z,1015.95
2019-02-04T03:08:43.875Z,1015.97
2019-02-04T03:09:42.426Z,1015.94
2019-02-04T03:10:40.970Z,1015.97
2019-02-04T03:11:39.508Z,1015.96
2019-02-04T03:12:38.043Z,1015.97
2019-02-04T03:13:36.722Z,1016.01
2019-02-04T03:14:35.278Z,1015.96
2019-02-04T03:15:33.945Z,1015.96
2019-02-04T03:16:32.678Z,1015.96
2019-02-04T03:17:31.236Z,1015.97
2019-02-04T03:18:29.844Z,1015.96
2019-02-04T03:19:28.444Z,1015.99
2019-02-04T03:20:27.007Z,1015.99
2019-02-04T03:21:25.551Z,1015.96
2019-02-04T03:22:24.107Z,1015.94
2019-02-04T03:23:22.784Z,1015.94
2019-02-04T03:24:21.374Z,1016.02
2019-02-04T03:25:20.061Z,1016.01
2019-02-04T03:26:18.660Z,1015.99
2019-02-04T03:27:17.213Z,1015.98
2019-02-04T03:28:16.035Z,1016
2019-02-04T03:29:14.603Z,1016.01
2019-02-04T03:30:13.142Z,1015.99
2019-02-04T03:31:11.728Z,1016.05
2019-02-04T03:32:10.284Z,1016.01
2019-02-04T03:33:08.838Z,1016.03
2019-02-04T03:34:07.404Z,1016.03
2019-02-04T03:35:06.025Z,1016.03
2019-02-04T03:36:04.680Z,1016.03
2019-02-04T03:37:03.224Z,1016.08
2019-02-04T03:38:01.867Z,1016.04
2019-02-04T03:39:00.658Z,1016.02
2019-02-04T03:39:59.290Z,1016.06
2019-02-04T03:40:57.798Z,1016.11
2019-02-04T03:41:56.310Z,1016.09
2019-02-04T03:42:54.874Z,1016.13
2019-02-04T03:43:53.402Z,1016.09
2019-02-04T03:44:51.945Z,1016.11
2019-02-04T03:45:50.466Z,1016.13
2019-02-04T03:46:49.004Z,1016.15
2019-02-04T03:47:47.545Z,1016.12
2019-02-04T03:48:46.075Z,1016.17
2019-02-04T03:49:44.638Z,1016.23
2019-02-04T03:50:43.261Z,1016.18
2019-02-04T03:51:41.835Z,1016.2
2019-02-04T03:52:40.423Z,1016.19
2019-02-04T03:53:38.966Z,1016.23
2019-02-04T03:54:37.506Z,1016.18
2019-02-04T03:55:36.203Z,1016.23
2019-02-04T03:56:34.845Z,1016.21
2019-02-04T03:57:33.386Z,1016.18
2019-02-04T03:58:32.039Z,1016.2
2019-02-04T03:59:30.600Z,1016.2
2019-02-04T04:00:29.142Z,1016.19
2019-02-04T04:01:27.712Z,1016.25
2019-02-04T04:02:26.299Z,1016.19
2019-02-04T04:03:24.783Z,1016.2
2019-02-04T04:04:23.361Z,1016.2
2019-02-04T04:05:21.914Z,1016.17
2019-02-04T04:06:20.499Z,1016.14
2019-02-04T04:07:19.052Z,1016.17
2019-02-04T04:08:17.598Z,1016.16
2019-02-04T04:09:16.370Z,1016.16
2019-02-04T04:10:14.933Z,1016.15
2019-02-04T04:11:13.466Z,1016.2
2019-02-04T04:12:12.181Z,1016.24
2019-02-04T04:13:10.828Z,1016.25
2019-02-04T04:14:09.363Z,1016.2
2019-02-04T04:15:07.902Z,1016.22
2019-02-04T04:16:06.574Z,1016.23
2019-02-04T04:17:05.110Z,1016.21
2019-02-04T04:18:15.005Z,1016.21
2019-02-04T04:19:02.400Z,1016.22
2019-02-04T04:20:00.951Z,1016.24
2019-02-04T04:20:59.520Z,1016.22
2019-02-04T04:21:58.114Z,1016.24
2019-02-04T04:22:56.810Z,1016.23
2019-02-04T04:23:55.343Z,1016.21
2019-02-04T04:24:54.074Z,1016.23
2019-02-04T04:25:52.620Z,1016.23
2019-02-04T04:26:51.186Z,1016.26
2019-02-04T04:27:50.281Z,1016.2
2019-02-04T04:28:48.867Z,1016.24
2019-02-04T04:29:47.417Z,1016.23
2019-02-04T04:30:46.113Z,1016.22
2019-02-04T04:31:44.651Z,1016.18
2019-02-04T04:32:43.242Z,1016.16
2019-02-04T04:33:41.788Z,1016.14
2019-02-04T04:34:40.365Z,1016.13
2019-02-04T04:35:38.912Z,1016.12
2019-02-04T04:36:37.426Z,1016.09
2019-02-04T04:37:36.001Z,1016.11
2019-02-04T04:38:34.603Z,1016.07
2019-02-04T04:39:33.156Z,1016.07
2019-02-04T04:40:31.760Z,1016.09
2019-02-04T04:41:30.409Z,1016.1
2019-02-04T04:42:28.957Z,1016.16
2019-02-04T04:43:27.511Z,1016.11
2019-02-04T04:44:26.359Z,1016.15
2019-02-04T04:45:24.927Z,1016.18
2019-02-04T04:46:23.467Z,1016.13
2019-02-04T04:47:22.019Z,1016.14
2019-02-04T04:48:26.410Z,1016.14
2019-02-04T04:49:19.144Z,1016.15
2019-02-04T04:50:17.692Z,1016.2
2019-02-04T04:51:16.233Z,1016.17
2019-02-04T04:52:14.789Z,1016.22
2019-02-04T04:53:13.275Z,1016.22
2019-02-04T04:54:12.155Z,1016.25
2019-02-04T04:55:11.523Z,1016.19
2019-02-04T04:56:10.235Z,1016.23
2019-02-04T04:57:08.900Z,1016.26
2019-02-04T04:58:07.440Z,1016.26
2019-02-04T04:59:06.138Z,1016.17
2019-02-04T05:00:04.721Z,1016.18
2019-02-04T05:01:03.247Z,1016.23
2019-02-04T05:02:01.800Z,1016.2
2019-02-04T05:03:00.337Z,1016.19
2019-02-04T05:03:58.876Z,1016.22
2019-02-04T05:04:57.436Z,1016.23
2019-02-04T05:05:56.273Z,1016.2
2019-02-04T05:06:54.943Z,1016.23
2019-02-04T05:07:53.498Z,1016.21
2019-02-04T05:08:52.306Z,1016.25
2019-02-04T05:09:50.870Z,1016.23
2019-02-04T05:10:49.406Z,1016.21
2019-02-04T05:11:47.955Z,1016.22
2019-02-04T05:12:46.508Z,1016.22
2019-02-04T05:13:45.044Z,1016.19
2019-02-04T05:14:43.645Z,1016.23
2019-02-04T05:15:42.187Z,1016.24
2019-02-04T05:16:40.863Z,1016.27
2019-02-04T05:17:39.401Z,1016.31
2019-02-04T05:18:38.518Z,1016.3
2019-02-04T05:19:36.597Z,1016.34
2019-02-04T05:20:35.210Z,1016.31
2019-02-04T05:21:33.961Z,1016.35
2019-02-04T05:22:32.543Z,1016.33
2019-02-04T05:23:31.094Z,1016.36
2019-02-04T05:24:29.649Z,1016.43
2019-02-04T05:25:28.211Z,1016.44
2019-02-04T05:26:26.755Z,1016.47
2019-02-04T05:27:25.334Z,1016.44
2019-02-04T05:28:24.035Z,1016.47
2019-02-04T05:29:22.696Z,1016.53
2019-02-04T05:30:21.258Z,1016.52
2019-02-04T05:31:19.801Z,1016.5
2019-02-04T05:32:18.531Z,1016.59
2019-02-04T05:33:17.077Z,1016.56
2019-02-04T05:34:15.770Z,1016.56
2019-02-04T05:35:14.307Z,1016.61
2019-02-04T05:36:12.854Z,1016.53
2019-02-04T05:37:11.404Z,1016.57
2019-02-04T05:38:09.933Z,1016.57
2019-02-04T05:39:08.474Z,1016.57
2019-02-04T05:40:07.015Z,1016.59
2019-02-04T05:41:05.596Z,1016.62
2019-02-04T05:42:04.171Z,1016.62
2019-02-04T05:43:02.823Z,1016.66
2019-02-04T05:44:01.351Z,1016.61
2019-02-04T05:45:00.002Z,1016.63
2019-02-04T05:45:58.704Z,1016.63
2019-02-04T05:46:57.341Z,1016.68
2019-02-04T05:47:55.925Z,1016.64
2019-02-04T05:48:54.504Z,1016.65
2019-02-04T05:49:53.069Z,1016.63
2019-02-04T05:50:51.615Z,1016.65
2019-02-04T05:51:50.195Z,1016.69
2019-02-04T05:52:48.745Z,1016.72
2019-02-04T05:53:47.283Z,1016.71
2019-02-04T05:54:46.105Z,1016.71
2019-02-04T05:55:44.791Z,1016.69
2019-02-04T05:56:43.371Z,1016.65
2019-02-04T05:57:42.098Z,1016.64
2019-02-04T05:58:40.661Z,1016.64
2019-02-04T05:59:39.217Z,1016.52
2019-02-04T06:00:37.768Z,1016.54
2019-02-04T06:03:36.949Z,1016.5
2019-02-04T06:04:35.529Z,1016.48
2019-02-04T06:05:34.136Z,1016.49
2019-02-04T06:06:32.723Z,1016.48
2019-02-04T06:07:31.267Z,1016.49
2019-02-04T06:08:29.829Z,1016.44
2019-02-04T06:09:28.362Z,1016.43
2019-02-04T06:10:26.921Z,1016.49
2019-02-04T06:11:25.478Z,1016.48
2019-02-04T06:12:24.311Z,1016.44
2019-02-04T06:13:22.861Z,1016.4
2019-02-04T06:14:21.400Z,1016.44
2019-02-04T06:15:19.926Z,1016.41
2019-02-04T06:16:18.599Z,1016.41
2019-02-04T06:17:17.201Z,1016.29
2019-02-04T06:18:15.795Z,1016.31
2019-02-04T06:19:14.369Z,1016.34
2019-02-04T06:20:12.939Z,1016.31
2019-02-04T06:21:11.467Z,1016.29
2019-02-04T06:22:10.010Z,1016.28
2019-02-04T06:23:08.609Z,1016.27
2019-02-04T06:24:07.166Z,1016.23
2019-02-04T06:25:05.700Z,1016.24
2019-02-04T06:26:04.261Z,1016.2
2019-02-04T06:27:02.888Z,1016.2
2019-02-04T06:28:01.504Z,1016.18
2019-02-04T06:29:00.101Z,1016.18
2019-02-04T06:29:58.690Z,1016.2
2019-02-04T06:30:57.217Z,1016.22
2019-02-04T06:31:55.757Z,1016.25
2019-02-04T06:32:54.512Z,1016.29
2019-02-04T06:33:53.074Z,1016.3
2019-02-04T06:34:51.621Z,1016.31
2019-02-04T06:35:50.190Z,1016.38
2019-02-04T06:36:48.838Z,1016.38
2019-02-04T06:37:47.413Z,1016.34
2019-02-04T06:46:51.137Z,1016.42
2019-02-04T06:47:49.800Z,1016.46
2019-02-04T06:48:48.410Z,1016.49
2019-02-04T06:49:46.966Z,1016.5
2019-02-04T06:50:45.548Z,1016.48
2019-02-04T06:51:44.194Z,1016.55
2019-02-04T06:52:42.822Z,1016.54
2019-02-04T06:53:41.417Z,1016.6
2019-02-04T06:54:40.117Z,1016.57
2019-02-04T06:55:38.781Z,1016.57
2019-02-04T06:56:37.340Z,1016.57
2019-02-04T06:57:36.127Z,1016.5
2019-02-04T06:58:34.716Z,1016.56
2019-02-04T06:59:33.268Z,1016.48
2019-02-04T07:00:31.793Z,1016.52
2019-02-04T07:01:30.361Z,1016.46
2019-02-04T07:02:28.916Z,1016.53
2019-02-04T07:03:27.455Z,1016.53
2019-02-04T07:04:26.271Z,1016.54
2019-02-04T07:05:25.490Z,1016.54
2019-02-04T07:06:24.319Z,1016.56
2019-02-04T07:07:22.941Z,1016.61
2019-02-04T07:08:21.489Z,1016.6
2019-02-04T07:09:20.045Z,1016.63
2019-02-04T07:10:18.621Z,1016.6
2019-02-04T07:11:17.191Z,1016.65
2019-02-04T07:12:15.824Z,1016.68
2019-02-04T07:13:14.410Z,1016.71
2019-02-04T07:14:12.971Z,1016.69
2019-02-04T07:15:11.506Z,1016.7
2019-02-04T07:16:10.052Z,1016.7
2019-02-04T07:17:08.648Z,1016.77
2019-02-04T07:18:07.217Z,1016.75
2019-02-04T07:19:05.798Z,1016.85
2019-02-04T07:20:04.425Z,1016.85
2019-02-04T07:21:02.984Z,1016.87
2019-02-04T07:22:01.597Z,1016.91
2019-02-04T07:23:00.504Z,1016.89
2019-02-04T07:23:59.069Z,1016.93
2019-02-04T07:24:57.690Z,1016.93
2019-02-04T07:25:56.475Z,1016.99
2019-02-04T07:26:55.043Z,1017.02
2019-02-04T07:27:53.667Z,1017.01
2019-02-04T07:28:52.527Z,1017.07
2019-02-04T07:29:51.063Z,1017.07
2019-02-04T07:30:49.637Z,1017.1
2019-02-04T07:31:48.183Z,1017.1
2019-02-04T07:32:46.786Z,1017.07
2019-02-04T07:33:45.349Z,1017.13
2019-02-04T07:34:43.888Z,1017.12
2019-02-04T07:35:42.457Z,1017.13
2019-02-04T07:36:41.726Z,1017.11
2019-02-04T07:37:40.288Z,1017.09
2019-02-04T07:38:38.834Z,1017.12
2019-02-04T07:39:37.407Z,1017.15
2019-02-04T07:40:36.006Z,1017.15
2019-02-04T07:41:34.699Z,1017.17
2019-02-04T07:42:33.283Z,1017.17
2019-02-04T07:43:31.887Z,1017.15
2019-02-04T07:44:30.727Z,1017.21
2019-02-04T07:45:29.270Z,1017.25
2019-02-04T07:46:27.890Z,1017.18
2019-02-04T07:47:26.518Z,1017.23
2019-02-04T07:48:25.059Z,1017.26
2019-02-04T07:49:34.700Z,1017.24
2019-02-04T07:50:22.410Z,1017.23
2019-02-04T07:51:20.960Z,1017.22
2019-02-04T07:52:19.525Z,1017.26
2019-02-04T07:53:18.248Z,1017.24
2019-02-04T07:54:16.812Z,1017.23
2019-02-04T07:55:15.371Z,1017.23
2019-02-04T07:56:14.058Z,1017.22
2019-02-04T07:57:12.626Z,1017.24
2019-02-04T07:58:11.170Z,1017.2
2019-02-04T07:59:09.715Z,1017.26
2019-02-04T08:00:08.223Z,1017.28
2019-02-04T08:01:06.781Z,1017.21
2019-02-04T08:02:05.462Z,1017.29
2019-02-04T08:03:04.142Z,1017.28
2019-02-04T08:04:02.742Z,1017.28
2019-02-04T08:05:01.638Z,1017.31
2019-02-04T08:06:00.235Z,1017.32
2019-02-04T08:06:58.765Z,1017.33
2019-02-04T08:07:57.322Z,1017.33
2019-02-04T08:08:55.902Z,1017.36
2019-02-04T08:09:54.505Z,1017.35
2019-02-04T08:10:53.048Z,1017.34
2019-02-04T08:11:51.609Z,1017.37
2019-02-04T08:13:00.789Z,1017.39
2019-02-04T08:13:49.006Z,1017.38
2019-02-04T08:14:47.546Z,1017.42
2019-02-04T08:15:46.249Z,1017.4
2019-02-04T08:16:44.812Z,1017.37
2019-02-04T08:17:43.513Z,1017.4
2019-02-04T08:18:42.452Z,1017.4
2019-02-04T08:19:46.961Z,1017.36
2019-02-04T08:20:40.555Z,1017.36
2019-02-04T08:21:39.154Z,1017.35
2019-02-04T08:22:37.698Z,1017.35
2019-02-04T08:23:36.425Z,1017.36
2019-02-04T08:24:34.989Z,1017.4
2019-02-04T08:25:33.539Z,1017.34
2019-02-04T08:26:32.092Z,1017.35
2019-02-04T08:27:30.634Z,1017.36
2019-02-04T08:28:29.184Z,1017.36
2019-02-04T08:29:27.869Z,1017.35
2019-02-04T08:30:26.551Z,1017.34
2019-02-04T08:31:25.092Z,1017.36
2019-02-04T08:32:23.646Z,1017.33
2019-02-04T08:33:22.245Z,1017.33
2019-02-04T08:34:20.883Z,1017.31
2019-02-04T08:35:19.433Z,1017.24
2019-02-04T08:36:18.180Z,1017.26
2019-02-04T08:37:16.734Z,1017.18
2019-02-04T08:38:15.298Z,1017.14
2019-02-04T08:39:13.840Z,1017.15
2019-02-04T08:40:12.398Z,1017.13
2019-02-04T08:41:10.941Z,1017.15
2019-02-04T08:42:09.516Z,1017.13
2019-02-04T08:43:08.211Z,1017.19
2019-02-04T08:44:06.787Z,1017.2
2019-02-04T08:45:05.366Z,1017.19
2019-02-04T08:46:03.953Z,1017.19
2019-02-04T08:47:02.711Z,1017.22
2019-02-04T08:48:01.265Z,1017.2
2019-02-04T08:48:59.899Z,1017.19
2019-02-04T08:49:59.121Z,1017.22
2019-02-04T08:50:57.109Z,1017.19
2019-02-04T08:51:55.648Z,1017.16
2019-02-04T08:52:54.436Z,1017.2
2019-02-04T08:53:52.981Z,1017.19
2019-02-04T08:54:51.516Z,1017.19
2019-02-04T08:55:50.110Z,1017.17
2019-02-04T08:56:48.639Z,1017.14
2019-02-04T08:57:47.249Z,1017.1
2019-02-04T08:58:45.990Z,1017.1
2019-02-04T08:59:44.558Z,1017.12
2019-02-04T09:00:43.118Z,1017.11
2019-02-04T09:01:41.644Z,1017.12
2019-02-04T09:02:40.249Z,1017.1
2019-02-04T09:03:38.757Z,1017.1
2019-02-04T09:04:37.306Z,1017.07
2019-02-04T09:05:35.867Z,1017.09
2019-02-04T09:06:34.652Z,1017.11
2019-02-04T09:07:33.200Z,1017.06
2019-02-04T09:08:31.739Z,1017.12
2019-02-04T09:09:30.569Z,1017.04
2019-02-04T09:10:29.164Z,1017.08
2019-02-04T09:11:27.739Z,1017.05
2019-02-04T09:12:26.313Z,1017.03
2019-02-04T09:13:24.863Z,1017.02
2019-02-04T09:14:23.398Z,1016.99
2019-02-04T09:15:21.949Z,1017.02
2019-02-04T09:16:20.497Z,1016.96
2019-02-04T09:17:19.005Z,1017
2019-02-04T09:18:17.530Z,1017.02
2019-02-04T09:19:16.091Z,1017.01
2019-02-04T09:20:14.602Z,1016.97
2019-02-04T09:21:13.147Z,1016.92
2019-02-04T09:22:11.683Z,1016.87
2019-02-04T09:23:10.524Z,1016.88
2019-02-04T09:24:09.173Z,1016.86
2019-02-04T09:25:07.657Z,1016.85
2019-02-04T09:26:06.548Z,1016.79
2019-02-04T09:27:05.118Z,1016.8
2019-02-04T09:28:03.675Z,1016.77
2019-02-04T09:29:02.327Z,1016.84
2019-02-04T09:30:01.050Z,1016.82
2019-02-04T09:30:59.593Z,1016.84
2019-02-04T09:31:58.230Z,1016.86
2019-02-04T09:32:56.787Z,1016.86
2019-02-04T09:33:55.397Z,1016.91
2019-02-04T09:34:54.202Z,1016.9
2019-02-04T09:35:52.752Z,1017.01
2019-02-04T09:36:51.290Z,1016.99
2019-02-04T09:37:49.853Z,1016.99
2019-02-04T09:38:48.402Z,1017.04
2019-02-04T09:39:46.921Z,1017.07
2019-02-04T09:40:45.518Z,1017.05
2019-02-04T09:41:44.083Z,1017.09
2019-02-04T09:42:42.714Z,1017.13
2019-02-04T09:43:41.204Z,1017.08
2019-02-04T09:44:39.773Z,1017.15
2019-02-04T09:45:38.443Z,1017.16
2019-02-04T09:46:37.119Z,1017.16
2019-02-04T09:47:35.653Z,1017.18
2019-02-04T09:48:34.302Z,1017.23
2019-02-04T09:49:32.965Z,1017.14
2019-02-04T09:50:32.461Z,1017.15
2019-02-04T09:51:30.052Z,1017.12
2019-02-04T09:52:28.579Z,1017.2
2019-02-04T09:53:27.114Z,1017.15
2019-02-04T09:54:25.698Z,1017.13
2019-02-04T09:55:24.303Z,1017.16
2019-02-04T09:56:22.839Z,1017.12
2019-02-04T09:57:21.379Z,1017.13
2019-02-04T09:58:19.949Z,1017.09
2019-02-04T09:59:18.538Z,1017.05
2019-02-04T10:01:58.949Z,1017.04
2019-02-04T10:02:57.504Z,1016.98
2019-02-04T10:03:56.072Z,1017.02
2019-02-04T10:04:54.648Z,1017.06
2019-02-04T10:05:53.218Z,1017.02
2019-02-04T10:06:51.768Z,1016.99
2019-02-04T10:07:50.319Z,1017.04
2019-02-04T10:08:48.833Z,1017.06
2019-02-04T10:32:14.008Z,1016.91
2019-02-04T10:33:12.591Z,1016.9
2019-02-04T10:34:11.127Z,1016.88
2019-02-04T10:35:16.526Z,1016.86
2019-02-04T10:36:08.215Z,1016.84
2019-02-04T10:37:06.844Z,1016.85
2019-02-04T10:38:05.409Z,1016.79
2019-02-04T10:39:04.133Z,1016.78
2019-02-04T10:40:02.687Z,1016.78
2019-02-04T10:41:01.254Z,1016.71
2019-02-04T10:41:59.775Z,1016.69
2019-02-04T10:42:58.657Z,1016.66
2019-02-04T10:43:57.175Z,1016.65
2019-02-04T10:44:55.780Z,1016.6
2019-02-04T10:45:54.334Z,1016.62
2019-02-04T10:46:52.921Z,1016.56
2019-02-04T10:47:51.576Z,1016.55
2019-02-04T10:48:50.106Z,1016.53
2019-02-04T10:49:48.718Z,1016.5
2019-02-04T10:50:47.389Z,1016.53
2019-02-04T10:51:45.846Z,1016.49
2019-02-04T10:52:44.442Z,1016.49
2019-02-04T10:53:43.098Z,1016.5
2019-02-04T10:54:41.648Z,1016.49
2019-02-04T10:55:40.481Z,1016.43
2019-02-04T10:56:38.981Z,1016.37
2019-02-04T10:57:40.430Z,1016.4
2019-02-04T10:58:36.101Z,1016.34
2019-02-04T10:59:34.680Z,1016.32
2019-02-04T11:00:33.250Z,1016.29
2019-02-04T11:01:31.795Z,1016.31
2019-02-04T11:02:30.347Z,1016.3
2019-02-04T11:03:28.920Z,1016.25
2019-02-04T11:04:27.446Z,1016.24
2019-02-04T11:05:26.012Z,1016.26
2019-02-04T11:06:24.695Z,1016.19
2019-02-04T11:07:23.298Z,1016.2
2019-02-04T11:08:22.264Z,1016.15
2019-02-04T11:09:20.768Z,1016.16
2019-02-04T11:10:19.267Z,1016.13
2019-02-04T11:11:17.892Z,1016.14
2019-02-04T11:12:16.407Z,1016.11
2019-02-04T11:13:14.980Z,1016.06
2019-02-04T11:14:13.556Z,1016.06
2019-02-04T11:15:12.397Z,1016.06
2019-02-04T11:16:11.103Z,1016.06
2019-02-04T11:17:09.671Z,1016.05
2019-02-04T11:18:08.343Z,1015.98
2019-02-04T11:19:06.800Z,1015.99
2019-02-04T11:20:05.351Z,1015.97
2019-02-04T11:21:03.958Z,1015.95
2019-02-04T11:22:02.543Z,1015.9
2019-02-04T11:23:01.055Z,1015.85
2019-02-04T11:23:59.634Z,1015.89
2019-02-04T11:24:58.169Z,1015.88
2019-02-04T11:25:56.898Z,1015.87
2019-02-04T11:26:55.435Z,1015.84
2019-02-04T11:27:54.117Z,1015.84
2019-02-04T11:28:52.828Z,1015.83
2019-02-04T11:29:51.400Z,1015.82
2019-02-04T11:30:49.992Z,1015.78
2019-02-04T11:31:48.636Z,1015.75
2019-02-04T11:32:47.389Z,1015.76
2019-02-04T11:33:46.039Z,1015.72
2019-02-04T11:34:44.687Z,1015.71
2019-02-04T11:35:43.241Z,1015.67
2019-02-04T11:36:42.353Z,1015.64
2019-02-04T11:37:41.024Z,1015.71
2019-02-04T11:38:39.568Z,1015.67
2019-02-04T11:39:38.219Z,1015.64
2019-02-04T11:40:36.895Z,1015.68
2019-02-04T11:41:35.433Z,1015.62
2019-02-04T11:42:34.146Z,1015.58
2019-02-04T11:43:32.741Z,1015.64
2019-02-04T11:44:31.357Z,1015.68
2019-02-04T11:45:30.302Z,1015.68
2019-02-04T11:46:29.098Z,1015.66
2019-02-04T11:47:27.726Z,1015.65
2019-02-04T11:48:26.325Z,1015.6
2019-02-04T11:49:24.870Z,1015.62
2019-02-04T11:50:23.437Z,1015.56
2019-02-04T11:51:22.261Z,1015.59
2019-02-04T11:52:20.910Z,1015.52
2019-02-04T11:53:19.456Z,1015.56
2019-02-04T11:54:18.014Z,1015.54
2019-02-04T11:55:16.801Z,1015.51
2019-02-04T11:56:15.420Z,1015.5
2019-02-04T11:57:13.966Z,1015.55
2019-02-04T11:58:12.529Z,1015.48
2019-02-04T11:59:11.101Z,1015.48
2019-02-04T12:00:09.690Z,1015.52
2019-02-04T12:01:08.559Z,1015.5
2019-02-04T12:02:07.133Z,1015.47
2019-02-04T12:03:05.693Z,1015.45
2019-02-04T12:04:04.545Z,1015.47
2019-02-04T12:05:03.126Z,1015.4
2019-02-04T12:06:02.581Z,1015.4
2019-02-04T12:07:01.115Z,1015.39
2019-02-04T12:07:59.691Z,1015.39
2019-02-04T12:08:58.308Z,1015.39
2019-02-04T12:09:56.938Z,1015.43
2019-02-04T12:10:55.493Z,1015.38
2019-02-04T12:11:55.684Z,1015.38
2019-02-04T12:12:52.876Z,1015.35
2019-02-04T12:13:51.437Z,1015.39
2019-02-04T12:14:50.202Z,1015.36
2019-02-04T12:15:48.753Z,1015.32
2019-02-04T12:16:47.310Z,1015.3
2019-02-04T12:17:45.862Z,1015.31
2019-02-04T12:18:44.435Z,1015.27
2019-02-04T12:19:42.998Z,1015.26
2019-02-04T12:20:41.559Z,1015.2
2019-02-04T12:21:40.267Z,1015.21
2019-02-04T12:22:38.884Z,1015.22
2019-02-04T12:23:37.409Z,1015.2
2019-02-04T12:24:35.976Z,1015.17
2019-02-04T12:25:34.645Z,1015.19